createdAt,value
2018-08-19T00:01:50.271Z,3.22
2018-08-19T00:04:18.498Z,3.17
2018-08-19T00:06:46.851Z,3.00
2018-08-19T00:09:16.402Z,3.10
2018-08-19T00:11:45.790Z,3.25
2018-08-19T00:14:26.178Z,3.20
2018-08-19T00:16:55.687Z,3.20
2018-08-19T00:19:23.925Z,3.10
2018-08-19T00:21:52.130Z,3.17
2018-08-19T00:24:20.328Z,3.70
2018-08-19T00:26:48.630Z,3.15
2018-08-19T00:29:22.180Z,3.02
2018-08-19T00:31:51.086Z,2.70
2018-08-19T00:34:24.621Z,2.90
2018-08-19T00:36:52.911Z,3.05
2018-08-19T00:39:21.143Z,3.10
2018-08-19T00:41:49.404Z,2.70
2018-08-19T00:44:17.674Z,2.37
2018-08-19T00:46:45.887Z,2.85
2018-08-19T00:49:14.119Z,2.83
2018-08-19T00:51:47.797Z,2.30
2018-08-19T00:54:16.053Z,2.30
2018-08-19T00:56:45.479Z,2.62
2018-08-19T00:59:13.698Z,2.40
2018-08-19T01:01:42.071Z,2.33
2018-08-19T01:04:10.528Z,2.08
2018-08-19T01:06:44.275Z,2.20
2018-08-19T01:09:12.518Z,2.30
2018-08-19T01:11:42.112Z,2.10
2018-08-19T01:14:12.552Z,2.10
2018-08-19T01:16:41.087Z,2.12
2018-08-19T01:19:09.808Z,2.30
2018-08-19T01:21:38.078Z,2.08
2018-08-19T01:24:07.299Z,2.17
2018-08-19T01:26:36.932Z,2.52
2018-08-19T01:29:06.071Z,2.15
2018-08-19T01:31:34.345Z,2.20
2018-08-19T01:34:06.366Z,1.67
2018-08-19T01:36:34.590Z,1.60
2018-08-19T01:39:02.897Z,1.70
2018-08-19T01:41:31.195Z,1.90
2018-08-19T01:44:12.648Z,1.70
2018-08-19T01:46:43.755Z,2.22
2018-08-19T01:49:12.019Z,1.90
2018-08-19T01:51:41.460Z,2.30
2018-08-19T01:54:15.222Z,2.90
2018-08-19T01:56:43.731Z,2.45
2018-08-19T01:59:11.959Z,2.27
2018-08-19T02:01:48.761Z,2.27
2018-08-19T02:04:17.222Z,2.30
2018-08-19T02:06:45.517Z,2.35
2018-08-19T02:09:15.785Z,2.02
2018-08-19T02:11:45.649Z,2.20
2018-08-19T02:14:14.387Z,1.90
2018-08-19T02:16:42.620Z,2.12
2018-08-19T02:19:17.334Z,2.10
2018-08-19T02:21:46.268Z,1.90
2018-08-19T02:24:14.880Z,2.15
2018-08-19T02:26:43.098Z,2.12
2018-08-19T02:29:28.239Z,1.77
2018-08-19T02:32:02.624Z,2.15
2018-08-19T02:34:35.828Z,2.08
2018-08-19T02:37:05.843Z,1.72
2018-08-19T02:39:36.284Z,2.00
2018-08-19T02:42:08.721Z,2.10
2018-08-19T02:44:36.965Z,2.25
2018-08-19T02:47:05.262Z,2.30
2018-08-19T02:49:33.504Z,2.15
2018-08-19T02:52:01.808Z,2.08
2018-08-19T02:54:30.068Z,2.35
2018-08-19T02:56:58.278Z,2.50
2018-08-19T02:59:26.498Z,2.90
2018-08-19T03:01:54.740Z,2.47
2018-08-19T03:04:22.972Z,2.67
2018-08-19T03:06:51.179Z,3.17
2018-08-19T03:09:19.411Z,2.65
2018-08-19T03:11:52.651Z,2.95
2018-08-19T03:14:20.886Z,2.65
2018-08-19T03:16:49.081Z,3.10
2018-08-19T03:19:17.307Z,2.85
2018-08-19T03:21:45.649Z,3.10
2018-08-19T03:24:13.895Z,3.17
2018-08-19T03:26:42.111Z,3.15
2018-08-19T03:29:15.540Z,3.17
2018-08-19T03:31:46.042Z,3.40
2018-08-19T03:34:14.289Z,3.35
2018-08-19T03:36:42.515Z,3.45
2018-08-19T03:39:16.311Z,3.30
2018-08-19T03:41:45.291Z,3.65
2018-08-19T03:44:13.523Z,3.70
2018-08-19T03:46:41.766Z,3.95
2018-08-19T03:49:10.022Z,3.10
2018-08-19T03:51:38.258Z,3.90
2018-08-19T03:54:06.591Z,3.85
2018-08-19T03:56:34.835Z,3.67
2018-08-19T03:59:06.041Z,4.10
2018-08-19T04:01:42.097Z,3.90
2018-08-19T04:04:10.929Z,3.42
2018-08-19T04:06:40.193Z,3.95
2018-08-19T04:09:08.675Z,3.70
2018-08-19T04:11:36.952Z,3.85
2018-08-19T04:14:19.614Z,3.70
2018-08-19T04:16:47.842Z,3.22
2018-08-19T04:19:16.084Z,3.10
2018-08-19T04:21:44.341Z,2.90
2018-08-19T04:24:12.600Z,3.02
2018-08-19T04:26:40.838Z,2.98
2018-08-19T04:29:13.405Z,2.80
2018-08-19T04:31:41.651Z,2.27
2018-08-19T04:34:10.108Z,2.42
2018-08-19T04:36:38.350Z,2.55
2018-08-19T04:39:06.660Z,2.12
2018-08-19T04:41:34.942Z,2.37
2018-08-19T04:44:03.196Z,2.27
2018-08-19T04:46:31.510Z,2.77
2018-08-19T04:48:59.725Z,2.67
2018-08-19T04:51:27.963Z,2.17
2018-08-19T04:53:56.229Z,2.50
2018-08-19T04:56:24.479Z,2.33
2018-08-19T04:58:52.695Z,2.10
2018-08-19T05:01:20.934Z,2.20
2018-08-19T05:03:49.152Z,2.12
2018-08-19T05:06:17.402Z,2.15
2018-08-19T05:08:45.659Z,2.20
2018-08-19T05:11:13.900Z,2.17
2018-08-19T05:13:42.160Z,2.35
2018-08-19T05:16:10.416Z,2.85
2018-08-19T05:18:38.654Z,2.27
2018-08-19T05:21:12.349Z,2.27
2018-08-19T05:23:40.568Z,2.55
2018-08-19T05:26:10.060Z,2.10
2018-08-19T05:28:38.311Z,2.30
2018-08-19T05:31:06.544Z,2.08
2018-08-19T05:33:34.783Z,2.22
2018-08-19T05:36:03.070Z,2.00
2018-08-19T05:38:32.073Z,2.20
2018-08-19T05:41:01.363Z,2.52
2018-08-19T05:43:30.275Z,2.10
2018-08-19T05:45:59.494Z,1.62
2018-08-19T05:48:27.723Z,1.95
2018-08-19T05:50:56.441Z,2.10
2018-08-19T05:53:24.691Z,2.10
2018-08-19T05:55:53.223Z,2.10
2018-08-19T05:58:21.531Z,2.52
2018-08-19T06:00:59.102Z,2.20
2018-08-19T06:03:27.331Z,2.47
2018-08-19T06:05:55.591Z,2.05
2018-08-19T06:08:23.811Z,1.90
2018-08-19T06:10:52.022Z,2.02
2018-08-19T06:13:20.258Z,1.90
2018-08-19T06:15:48.551Z,2.00
2018-08-19T06:18:16.703Z,2.15
2018-08-19T06:20:44.945Z,2.15
2018-08-19T06:23:13.155Z,2.20
2018-08-19T06:25:41.404Z,2.35
2018-08-19T06:28:09.623Z,2.30
2018-08-19T06:30:37.897Z,2.33
2018-08-19T06:33:06.195Z,2.05
2018-08-19T06:35:34.539Z,2.33
2018-08-19T06:38:02.779Z,1.77
2018-08-19T06:40:31.285Z,2.33
2018-08-19T06:42:59.522Z,1.87
2018-08-19T06:45:29.530Z,2.10
2018-08-19T06:47:57.749Z,1.98
2018-08-19T06:50:28.375Z,2.10
2018-08-19T06:52:56.889Z,1.90
2018-08-19T06:55:25.191Z,1.87
2018-08-19T06:57:55.564Z,1.98
2018-08-19T07:00:28.875Z,1.95
2018-08-19T07:02:59.031Z,2.27
2018-08-19T07:05:27.255Z,1.72
2018-08-19T07:07:55.733Z,2.12
2018-08-19T07:10:29.515Z,2.40
2018-08-19T07:13:03.275Z,1.82
2018-08-19T07:15:31.593Z,1.77
2018-08-19T07:17:59.831Z,1.85
2018-08-19T07:20:28.340Z,2.40
2018-08-19T07:22:56.752Z,1.82
2018-08-19T07:25:25.042Z,1.85
2018-08-19T07:27:53.419Z,1.85
2018-08-19T07:30:21.668Z,2.55
2018-08-19T07:32:49.879Z,1.98
2018-08-19T07:35:18.099Z,1.67
2018-08-19T07:37:46.797Z,2.10
2018-08-19T07:40:15.058Z,1.95
2018-08-19T07:42:43.289Z,2.10
2018-08-19T07:45:11.591Z,1.92
2018-08-19T07:47:39.930Z,1.85
2018-08-19T07:50:08.956Z,1.70
2018-08-19T07:52:37.189Z,2.08
2018-08-19T07:55:08.255Z,1.92
2018-08-19T07:57:39.703Z,1.98
2018-08-19T08:00:08.194Z,1.90
2018-08-19T08:02:36.439Z,1.80
2018-08-19T08:05:05.474Z,1.70
2018-08-19T08:07:33.737Z,1.47
2018-08-19T08:10:02.060Z,1.87
2018-08-19T08:12:30.312Z,1.77
2018-08-19T08:14:58.571Z,1.35
2018-08-19T08:17:27.300Z,1.87
2018-08-19T08:20:04.188Z,2.15
2018-08-19T08:22:33.486Z,1.80
2018-08-19T08:25:01.893Z,1.45
2018-08-19T08:27:31.056Z,1.95
2018-08-19T08:30:03.542Z,2.00
2018-08-19T08:32:31.788Z,1.98
2018-08-19T08:35:00.055Z,1.55
2018-08-19T08:37:28.306Z,2.20
2018-08-19T08:40:01.772Z,3.83
2018-08-19T08:42:34.226Z,1.98
2018-08-19T08:45:02.569Z,1.77
2018-08-19T08:47:31.439Z,2.20
2018-08-19T08:49:59.633Z,2.05
2018-08-19T08:52:27.981Z,1.95
2018-08-19T08:54:57.614Z,1.87
2018-08-19T08:57:26.395Z,2.15
2018-08-19T08:59:54.846Z,2.10
2018-08-19T09:02:24.136Z,2.72
2018-08-19T09:04:54.067Z,2.20
2018-08-19T09:07:22.414Z,2.27
2018-08-19T09:09:50.885Z,1.92
2018-08-19T09:12:30.533Z,2.22
2018-08-19T09:14:58.785Z,2.52
2018-08-19T09:17:27.936Z,2.40
2018-08-19T09:19:56.212Z,2.33
2018-08-19T09:22:24.445Z,2.20
2018-08-19T09:24:52.703Z,2.27
2018-08-19T09:27:20.935Z,2.50
2018-08-19T09:29:49.212Z,2.33
2018-08-19T09:32:17.444Z,2.25
2018-08-19T09:34:45.703Z,2.20
2018-08-19T09:37:13.955Z,2.10
2018-08-19T09:39:42.178Z,2.60
2018-08-19T09:42:12.049Z,3.33
2018-08-19T09:44:41.158Z,2.17
2018-08-19T09:47:09.473Z,2.40
2018-08-19T09:49:37.750Z,2.22
2018-08-19T09:52:06.263Z,2.33
2018-08-19T09:54:35.797Z,2.50
2018-08-19T09:57:04.920Z,2.83
2018-08-19T09:59:33.143Z,2.72
2018-08-19T10:02:05.214Z,2.25
2018-08-19T10:04:33.615Z,2.65
2018-08-19T10:07:07.213Z,2.58
2018-08-19T10:09:35.486Z,2.70
2018-08-19T10:12:03.736Z,2.80
2018-08-19T10:14:31.977Z,2.30
2018-08-19T10:17:00.232Z,2.65
2018-08-19T10:19:28.466Z,2.65
2018-08-19T10:21:56.706Z,2.50
2018-08-19T10:24:26.931Z,2.30
2018-08-19T10:26:55.536Z,2.27
2018-08-19T10:29:23.743Z,2.25
2018-08-19T10:31:54.370Z,2.15
2018-08-19T10:34:29.863Z,2.52
2018-08-19T10:36:58.737Z,2.37
2018-08-19T10:39:26.986Z,2.08
2018-08-19T10:42:11.074Z,1.85
2018-08-19T10:44:39.337Z,2.17
2018-08-19T10:47:07.579Z,2.47
2018-08-19T10:49:35.786Z,2.47
2018-08-19T10:52:06.821Z,2.30
2018-08-19T10:54:35.166Z,2.58
2018-08-19T10:57:17.895Z,2.20
2018-08-19T10:59:46.149Z,2.12
2018-08-19T11:02:14.390Z,2.30
2018-08-19T11:04:42.645Z,1.75
2018-08-19T11:07:10.875Z,2.37
2018-08-19T11:10:45.561Z,2.27
2018-08-19T11:13:17.195Z,2.00
2018-08-19T11:15:48.719Z,2.17
2018-08-19T11:18:34.288Z,2.37
2018-08-19T11:21:07.534Z,2.00
2018-08-19T11:23:37.591Z,2.20
2018-08-19T11:26:06.257Z,1.85
2018-08-19T11:28:37.264Z,2.80
2018-08-19T11:31:05.660Z,2.02
2018-08-19T11:33:39.930Z,2.22
2018-08-19T11:36:09.664Z,2.08
2018-08-19T11:38:38.411Z,2.02
2018-08-19T11:41:07.975Z,1.90
2018-08-19T11:43:39.506Z,2.05
2018-08-19T11:46:08.309Z,2.20
2018-08-19T11:48:37.336Z,2.37
2018-08-19T11:51:05.539Z,2.00
2018-08-19T11:53:34.079Z,2.27
2018-08-19T11:56:02.294Z,2.02
2018-08-19T11:58:50.265Z,2.10
2018-08-19T12:01:19.698Z,2.20
2018-08-19T12:04:03.887Z,2.12
2018-08-19T12:06:33.134Z,2.50
2018-08-19T12:09:02.686Z,2.55
2018-08-19T12:11:32.858Z,2.27
2018-08-19T12:14:03.800Z,2.47
2018-08-19T12:16:35.167Z,2.47
2018-08-19T12:19:08.914Z,2.55
2018-08-19T12:21:44.440Z,2.33
2018-08-19T12:24:51.516Z,2.58
2018-08-19T12:27:22.234Z,2.40
2018-08-19T12:29:55.019Z,2.70
2018-08-19T12:32:25.445Z,2.62
2018-08-19T12:34:55.048Z,2.67
2018-08-19T12:37:24.430Z,2.72
2018-08-19T12:39:53.010Z,3.40
2018-08-19T12:42:21.274Z,2.95
2018-08-19T12:44:51.978Z,3.05
2018-08-19T12:47:25.037Z,3.30
2018-08-19T12:49:54.574Z,3.00
2018-08-19T12:52:24.679Z,2.70
2018-08-19T12:54:58.371Z,3.52
2018-08-19T12:57:26.979Z,2.87
2018-08-19T13:00:02.134Z,3.02
2018-08-19T13:02:31.290Z,3.37
2018-08-19T13:04:59.545Z,3.65
2018-08-19T13:07:27.804Z,3.20
2018-08-19T13:09:56.035Z,3.45
2018-08-19T13:12:24.263Z,3.42
2018-08-19T13:14:52.514Z,3.30
2018-08-19T13:17:21.655Z,3.15
2018-08-19T13:19:55.425Z,3.83
2018-08-19T13:22:23.658Z,3.10
2018-08-19T13:24:51.900Z,3.12
2018-08-19T13:27:20.152Z,3.00
2018-08-19T13:29:48.391Z,3.50
2018-08-19T13:32:16.633Z,3.47
2018-08-19T13:34:44.918Z,3.30
2018-08-19T13:37:13.179Z,3.40
2018-08-19T13:39:41.416Z,3.30
2018-08-19T13:42:09.629Z,3.00
2018-08-19T13:44:37.929Z,3.22
2018-08-19T13:47:06.154Z,3.62
2018-08-19T13:49:34.369Z,3.35
2018-08-19T13:52:02.964Z,3.22
2018-08-19T13:54:31.240Z,3.05
2018-08-19T13:56:59.493Z,2.98
2018-08-19T13:59:27.707Z,3.25
2018-08-19T14:01:55.969Z,3.25
2018-08-19T14:04:24.222Z,2.80
2018-08-19T14:06:52.464Z,3.65
2018-08-19T14:09:20.878Z,3.02
2018-08-19T14:11:49.082Z,3.00
2018-08-19T14:14:17.330Z,2.95
2018-08-19T14:16:45.604Z,3.12
2018-08-19T14:19:13.836Z,3.10
2018-08-19T14:21:42.072Z,2.83
2018-08-19T14:24:10.316Z,3.20
2018-08-19T14:26:38.533Z,2.60
2018-08-19T14:29:06.798Z,2.98
2018-08-19T14:31:35.068Z,2.72
2018-08-19T14:34:03.349Z,3.02
2018-08-19T14:36:31.611Z,2.95
2018-08-19T14:38:59.884Z,2.85
2018-08-19T14:41:28.154Z,3.05
2018-08-19T14:44:03.231Z,2.90
2018-08-19T14:46:32.531Z,2.70
2018-08-19T14:49:02.951Z,2.77
2018-08-19T14:51:58.363Z,2.72
2018-08-19T14:54:26.668Z,2.85
2018-08-19T14:56:55.289Z,3.05
2018-08-19T14:59:23.533Z,2.58
2018-08-19T15:01:51.788Z,3.42
2018-08-19T15:04:20.026Z,2.60
2018-08-19T15:06:48.760Z,2.72
2018-08-19T15:09:23.364Z,2.60
2018-08-19T15:11:51.950Z,2.47
2018-08-19T15:14:21.054Z,2.77
2018-08-19T15:16:50.491Z,2.58
2018-08-19T15:19:18.684Z,3.00
2018-08-19T15:21:52.790Z,2.67
2018-08-19T15:24:21.015Z,2.92
2018-08-19T15:26:49.308Z,3.25
2018-08-19T15:29:36.239Z,2.90
2018-08-19T15:32:04.863Z,2.77
2018-08-19T15:34:32.945Z,2.60
2018-08-19T15:37:01.191Z,2.47
2018-08-19T15:39:29.433Z,2.67
2018-08-19T15:41:57.703Z,2.42
2018-08-19T15:44:25.944Z,2.62
2018-08-19T15:46:54.211Z,2.40
2018-08-19T15:49:23.705Z,2.12
2018-08-19T15:51:52.155Z,2.70
2018-08-19T15:54:20.453Z,2.80
2018-08-19T15:56:48.675Z,2.90
2018-08-19T15:59:16.909Z,3.17
2018-08-19T16:01:45.158Z,3.50
2018-08-19T16:04:19.422Z,2.62
2018-08-19T16:06:49.959Z,2.83
2018-08-19T16:09:19.789Z,2.37
2018-08-19T16:11:48.682Z,2.05
2018-08-19T16:14:24.442Z,2.27
2018-08-19T16:16:53.638Z,2.52
2018-08-19T16:19:21.982Z,2.80
2018-08-19T16:21:53.376Z,2.62
2018-08-19T16:24:21.634Z,2.50
2018-08-19T16:26:49.909Z,2.55
2018-08-19T16:29:18.207Z,2.17
2018-08-19T16:31:46.502Z,2.25
2018-08-19T16:34:15.009Z,2.30
2018-08-19T16:36:43.227Z,2.30
2018-08-19T16:39:13.095Z,2.40
2018-08-19T16:41:41.324Z,2.30
2018-08-19T16:44:09.829Z,2.25
2018-08-19T16:46:38.184Z,2.00
2018-08-19T16:49:06.464Z,2.52
2018-08-19T16:51:34.721Z,2.27
2018-08-19T16:54:02.952Z,2.27
2018-08-19T16:56:31.159Z,2.27
2018-08-19T16:58:59.407Z,2.30
2018-08-19T17:01:27.685Z,2.40
2018-08-19T17:03:55.928Z,2.10
2018-08-19T17:06:24.170Z,2.25
2018-08-19T17:08:52.400Z,2.60
2018-08-19T17:11:20.620Z,2.20
2018-08-19T17:13:49.042Z,2.15
2018-08-19T17:16:17.282Z,2.37
2018-08-19T17:18:45.506Z,2.08
2018-08-19T17:21:13.746Z,1.80
2018-08-19T17:23:41.975Z,2.08
2018-08-19T17:26:17.062Z,2.08
2018-08-19T17:28:45.278Z,2.15
2018-08-19T17:31:13.593Z,2.42
2018-08-19T17:33:41.832Z,2.15
2018-08-19T17:36:10.088Z,2.50
2018-08-19T17:38:38.357Z,2.60
2018-08-19T17:41:06.619Z,2.50
2018-08-19T17:43:40.270Z,2.00
2018-08-19T17:46:10.124Z,2.33
2018-08-19T17:48:40.198Z,2.30
2018-08-19T17:51:20.741Z,2.77
2018-08-19T17:53:48.995Z,2.80
2018-08-19T17:56:17.407Z,2.98
2018-08-19T17:58:45.814Z,2.80
2018-08-19T18:01:14.277Z,3.30
2018-08-19T18:03:42.499Z,2.55
2018-08-19T18:06:10.817Z,2.25
2018-08-19T18:08:42.489Z,2.37
2018-08-19T18:11:10.720Z,2.15
2018-08-19T18:13:39.039Z,2.50
2018-08-19T18:16:07.265Z,2.77
2018-08-19T18:18:35.646Z,2.58
2018-08-19T18:21:04.524Z,2.52
2018-08-19T18:23:32.864Z,2.60
2018-08-19T18:26:01.184Z,2.40
2018-08-19T18:28:30.809Z,2.12
2018-08-19T18:31:04.018Z,2.20
2018-08-19T18:33:32.327Z,2.17
2018-08-19T18:36:00.624Z,3.05
2018-08-19T18:38:30.864Z,2.37
2018-08-19T18:40:59.149Z,2.02
2018-08-19T18:43:27.509Z,2.22
2018-08-19T18:45:55.876Z,2.40
2018-08-19T18:48:24.044Z,2.42
2018-08-19T18:50:54.587Z,2.55
2018-08-19T18:53:23.434Z,2.85
2018-08-19T18:55:51.647Z,2.40
2018-08-19T18:58:19.871Z,2.50
2018-08-19T19:03:34.036Z,2.70
2018-08-19T19:06:02.319Z,3.40
2018-08-19T19:08:30.692Z,3.33
2018-08-19T19:11:06.135Z,2.70
2018-08-19T19:13:35.272Z,2.90
2018-08-19T19:16:03.668Z,3.00
2018-08-19T19:18:31.932Z,2.80
2018-08-19T19:21:01.064Z,2.85
2018-08-19T19:23:33.634Z,2.80
2018-08-19T19:26:02.956Z,2.98
2018-08-19T19:28:31.505Z,2.98
2018-08-19T19:31:04.987Z,2.85
2018-08-19T19:33:33.253Z,2.77
2018-08-19T19:36:06.953Z,2.85
2018-08-19T19:38:39.568Z,3.15
2018-08-19T19:41:10.138Z,3.10
2018-08-19T19:43:38.412Z,3.17
2018-08-19T19:46:06.858Z,3.52
2018-08-19T19:48:35.119Z,3.12
2018-08-19T19:51:03.452Z,3.35
2018-08-19T19:53:31.818Z,3.35
2018-08-19T19:56:05.469Z,3.80
2018-08-19T19:58:34.015Z,3.92
2018-08-19T20:01:03.343Z,3.62
2018-08-19T20:03:33.835Z,4.22
2018-08-19T20:06:03.214Z,4.12
2018-08-19T20:08:31.467Z,4.40
2018-08-19T20:10:59.728Z,4.12
2018-08-19T20:13:28.011Z,4.80
2018-08-19T20:15:56.292Z,4.60
2018-08-19T20:18:24.553Z,4.20
2018-08-19T20:20:52.972Z,4.10
2018-08-19T20:23:25.321Z,4.22
2018-08-19T20:25:54.727Z,3.92
2018-08-19T20:28:22.943Z,4.17
2018-08-19T20:30:51.186Z,5.05
2018-08-19T20:33:22.337Z,4.20
2018-08-19T20:35:50.554Z,4.50
2018-08-19T20:38:18.818Z,4.47
2018-08-19T20:40:47.147Z,4.05
2018-08-19T20:43:20.270Z,4.20
2018-08-19T20:45:48.668Z,3.72
2018-08-19T20:48:18.808Z,4.30
2018-08-19T20:50:47.593Z,4.00
2018-08-19T20:53:15.883Z,4.70
2018-08-19T20:55:44.118Z,3.95
2018-08-19T20:58:12.362Z,4.17
2018-08-19T21:00:40.602Z,3.83
2018-08-19T21:03:09.375Z,4.47
2018-08-19T21:05:37.958Z,4.17
2018-08-19T21:08:10.433Z,4.10
2018-08-19T21:10:41.079Z,3.80
2018-08-19T21:13:10.832Z,3.90
2018-08-19T21:15:40.605Z,4.67
2018-08-19T21:18:08.938Z,4.72
2018-08-19T21:20:37.206Z,4.30
2018-08-19T21:23:05.999Z,4.00
2018-08-19T21:25:35.062Z,4.10
2018-08-19T21:28:03.350Z,3.58
2018-08-19T21:30:31.665Z,3.72
2018-08-19T21:32:59.824Z,3.67
2018-08-19T21:35:31.290Z,3.80
2018-08-19T21:37:59.535Z,3.70
2018-08-19T21:40:36.207Z,4.15
2018-08-19T21:43:04.467Z,3.70
2018-08-19T21:45:39.942Z,3.50
2018-08-19T21:48:09.671Z,3.72
2018-08-19T21:50:38.024Z,3.62
2018-08-19T21:53:08.585Z,4.35
2018-08-19T21:55:38.089Z,4.12
2018-08-19T21:58:06.632Z,3.45
2018-08-19T22:00:37.513Z,3.42
2018-08-19T22:03:14.543Z,3.52
2018-08-19T22:05:42.737Z,4.00
2018-08-19T22:08:11.174Z,3.75
2018-08-19T22:10:39.407Z,3.62
2018-08-19T22:13:07.665Z,3.55
2018-08-19T22:15:37.826Z,4.25
2018-08-19T22:18:07.152Z,4.17
2018-08-19T22:20:35.957Z,4.17
2018-08-19T22:23:04.188Z,3.87
2018-08-19T22:25:32.427Z,3.83
2018-08-19T22:28:00.656Z,3.67
2018-08-19T22:30:29.772Z,3.77
2018-08-19T22:32:58.454Z,3.77
2018-08-19T22:35:30.775Z,3.70
2018-08-19T22:38:02.208Z,3.98
2018-08-19T22:40:35.376Z,3.92
2018-08-19T22:43:03.727Z,3.67
2018-08-19T22:45:31.959Z,4.03
2018-08-19T22:48:00.228Z,4.12
2018-08-19T22:50:28.792Z,3.95
2018-08-19T22:52:57.084Z,4.10
2018-08-19T22:55:25.339Z,3.87
2018-08-19T22:57:59.295Z,4.62
2018-08-19T23:00:28.063Z,3.98
2018-08-19T23:02:56.455Z,3.87
2018-08-19T23:05:24.716Z,3.33
2018-08-19T23:07:52.983Z,3.35
2018-08-19T23:10:21.239Z,3.58
2018-08-19T23:12:49.468Z,3.83
2018-08-19T23:15:29.089Z,3.67
2018-08-19T23:17:57.325Z,4.00
2018-08-19T23:20:25.594Z,3.77
2018-08-19T23:22:53.843Z,3.80
2018-08-19T23:25:22.132Z,3.60
2018-08-19T23:27:50.348Z,3.50
2018-08-19T23:30:18.630Z,4.03
2018-08-19T23:32:46.843Z,3.95
2018-08-19T23:35:15.303Z,3.75
2018-08-19T23:37:43.567Z,3.77
2018-08-19T23:40:11.799Z,3.90
2018-08-19T23:42:40.157Z,3.98
2018-08-19T23:45:08.400Z,3.60
2018-08-19T23:47:36.609Z,3.92
2018-08-19T23:50:04.900Z,3.72
2018-08-19T23:52:33.159Z,4.10
2018-08-19T23:55:01.423Z,4.08
2018-08-19T23:57:29.697Z,3.80
2018-08-19T23:59:57.917Z,4.35
